sensor_id;sensor_type;location;lat;lon;timestamp;temperature;humidity
61351;DHT22;47119;49.130;9.218;2023-01-04T00:00:06;12.36;67.91
61351;DHT22;47119;49.130;9.218;2023-01-04T00:02:34;12.36;67.64
61351;DHT22;47119;49.130;9.218;2023-01-04T00:05:04;12.33;67.28
61351;DHT22;47119;49.130;9.218;2023-01-04T00:07:33;12.33;67.63
61351;DHT22;47119;49.130;9.218;2023-01-04T00:10:00;12.32;67.19
61351;DHT22;47119;49.130;9.218;2023-01-04T00:12:27;12.29;67.07
61351;DHT22;47119;49.130;9.218;2023-01-04T00:14:55;12.33;67.31
61351;DHT22;47119;49.130;9.218;2023-01-04T00:17:22;12.33;67.64
61351;DHT22;47119;49.130;9.218;2023-01-04T00:19:49;12.32;67.53
61351;DHT22;47119;49.130;9.218;2023-01-04T00:22:19;12.27;67.25
61351;DHT22;47119;49.130;9.218;2023-01-04T00:24:48;12.27;67.21
61351;DHT22;47119;49.130;9.218;2023-01-04T00:27:15;12.23;67.10
61351;DHT22;47119;49.130;9.218;2023-01-04T00:29:43;12.24;67.14
61351;DHT22;47119;49.130;9.218;2023-01-04T00:32:10;12.29;67.58
61351;DHT22;47119;49.130;9.218;2023-01-04T00:34:37;12.29;67.46
61351;DHT22;47119;49.130;9.218;2023-01-04T00:37:04;12.32;67.29
61351;DHT22;47119;49.130;9.218;2023-01-04T00:39:32;12.32;67.39
61351;DHT22;47119;49.130;9.218;2023-01-04T00:42:00;12.32;67.59
61351;DHT22;47119;49.130;9.218;2023-01-04T00:44:31;12.27;67.22
61351;DHT22;47119;49.130;9.218;2023-01-04T00:47:01;12.23;67.30
61351;DHT22;47119;49.130;9.218;2023-01-04T00:49:30;12.23;67.64
61351;DHT22;47119;49.130;9.218;2023-01-04T00:51:57;12.22;67.44
61351;DHT22;47119;49.130;9.218;2023-01-04T00:54:25;12.22;67.42
61351;DHT22;47119;49.130;9.218;2023-01-04T00:56:54;12.19;66.98
61351;DHT22;47119;49.130;9.218;2023-01-04T00:59:25;12.20;67.33
61351;DHT22;47119;49.130;9.218;2023-01-04T01:01:52;12.22;67.27
61351;DHT22;47119;49.130;9.218;2023-01-04T01:04:21;12.26;67.40
61351;DHT22;47119;49.130;9.218;2023-01-04T01:06:51;12.23;67.24
61351;DHT22;47119;49.130;9.218;2023-01-04T01:09:21;12.22;67.10
61351;DHT22;47119;49.130;9.218;2023-01-04T01:11:52;12.14;67.03
61351;DHT22;47119;49.130;9.218;2023-01-04T01:14:25;12.17;67.41
61351;DHT22;47119;49.130;9.218;2023-01-04T01:16:55;12.22;67.32
61351;DHT22;47119;49.130;9.218;2023-01-04T01:19:22;12.19;67.37
61351;DHT22;47119;49.130;9.218;2023-01-04T01:21:50;12.19;66.93
61351;DHT22;47119;49.130;9.218;2023-01-04T01:24:19;12.16;67.09
61351;DHT22;47119;49.130;9.218;2023-01-04T01:26:46;12.19;67.31
61351;DHT22;47119;49.130;9.218;2023-01-04T01:29:14;12.19;67.56
61351;DHT22;47119;49.130;9.218;2023-01-04T01:31:45;12.13;67.05
61351;DHT22;47119;49.130;9.218;2023-01-04T01:34:12;12.14;67.29
61351;DHT22;47119;49.130;9.218;2023-01-04T01:36:39;12.12;66.61
61351;DHT22;47119;49.130;9.218;2023-01-04T01:39:06;12.14;67.11
61351;DHT22;47119;49.130;9.218;2023-01-04T01:41:34;12.10;66.87
61351;DHT22;47119;49.130;9.218;2023-01-04T01:44:04;12.12;67.19
61351;DHT22;47119;49.130;9.218;2023-01-04T01:46:35;12.10;67.26
61351;DHT22;47119;49.130;9.218;2023-01-04T01:49:11;12.13;67.22
61351;DHT22;47119;49.130;9.218;2023-01-04T01:51:44;12.12;66.93
61351;DHT22;47119;49.130;9.218;2023-01-04T01:54:13;12.10;66.74
61351;DHT22;47119;49.130;9.218;2023-01-04T01:56:49;12.12;66.85
61351;DHT22;47119;49.130;9.218;2023-01-04T01:59:21;12.10;67.48
61351;DHT22;47119;49.130;9.218;2023-01-04T02:01:49;12.10;66.88
61351;DHT22;47119;49.130;9.218;2023-01-04T02:04:17;12.10;67.12
61351;DHT22;47119;49.130;9.218;2023-01-04T02:06:49;12.13;67.27
61351;DHT22;47119;49.130;9.218;2023-01-04T02:09:20;12.14;67.04
61351;DHT22;47119;49.130;9.218;2023-01-04T02:11:49;12.13;67.42
61351;DHT22;47119;49.130;9.218;2023-01-04T02:14:17;12.14;67.10
61351;DHT22;47119;49.130;9.218;2023-01-04T02:17:06;12.12;67.26
61351;DHT22;47119;49.130;9.218;2023-01-04T02:29:59;12.14;67.03
61351;DHT22;47119;49.130;9.218;2023-01-04T02:33:00;12.13;66.70
61351;DHT22;47119;49.130;9.218;2023-01-04T02:35:42;12.16;66.58
61351;DHT22;47119;49.130;9.218;2023-01-04T02:38:24;12.16;66.92
61351;DHT22;47119;49.130;9.218;2023-01-04T02:41:02;12.13;66.65
61351;DHT22;47119;49.130;9.218;2023-01-04T02:43:40;12.13;66.61
61351;DHT22;47119;49.130;9.218;2023-01-04T02:46:34;12.14;66.77
61351;DHT22;47119;49.130;9.218;2023-01-04T02:49:07;12.09;66.63
61351;DHT22;47119;49.130;9.218;2023-01-04T02:51:52;12.13;67.05
61351;DHT22;47119;49.130;9.218;2023-01-04T02:54:21;12.10;66.47
61351;DHT22;47119;49.130;9.218;2023-01-04T02:57:00;12.09;66.65
61351;DHT22;47119;49.130;9.218;2023-01-04T02:59:53;12.09;66.54
61351;DHT22;47119;49.130;9.218;2023-01-04T03:02:43;12.10;67.02
61351;DHT22;47119;49.130;9.218;2023-01-04T03:05:41;12.06;66.58
61351;DHT22;47119;49.130;9.218;2023-01-04T03:08:39;12.05;66.64
61351;DHT22;47119;49.130;9.218;2023-01-04T03:11:14;12.05;66.52
61351;DHT22;47119;49.130;9.218;2023-01-04T03:14:03;12.02;66.20
61351;DHT22;47119;49.130;9.218;2023-01-04T03:16:37;12.00;66.03
61351;DHT22;47119;49.130;9.218;2023-01-04T03:19:07;12.00;66.40
61351;DHT22;47119;49.130;9.218;2023-01-04T03:21:42;11.99;65.96
61351;DHT22;47119;49.130;9.218;2023-01-04T03:24:12;11.99;66.36
61351;DHT22;47119;49.130;9.218;2023-01-04T03:27:00;12.03;66.40
61351;DHT22;47119;49.130;9.218;2023-01-04T03:29:53;12.17;66.02
61351;DHT22;47119;49.130;9.218;2023-01-04T03:32:46;12.23;65.88
61351;DHT22;47119;49.130;9.218;2023-01-04T03:35:42;12.32;65.46
61351;DHT22;47119;49.130;9.218;2023-01-04T03:38:17;12.30;64.86
61351;DHT22;47119;49.130;9.218;2023-01-04T03:41:12;12.40;65.00
61351;DHT22;47119;49.130;9.218;2023-01-04T03:44:09;12.40;64.85
61351;DHT22;47119;49.130;9.218;2023-01-04T03:47:05;12.44;64.73
61351;DHT22;47119;49.130;9.218;2023-01-04T03:50:00;12.44;64.64
61351;DHT22;47119;49.130;9.218;2023-01-04T03:52:32;12.47;64.71
61351;DHT22;47119;49.130;9.218;2023-01-04T03:55:04;12.45;64.38
61351;DHT22;47119;49.130;9.218;2023-01-04T03:57:33;12.48;64.83
61351;DHT22;47119;49.130;9.218;2023-01-04T04:00:07;12.43;64.63
61351;DHT22;47119;49.130;9.218;2023-01-04T04:02:39;12.43;64.36
61351;DHT22;47119;49.130;9.218;2023-01-04T04:05:09;12.45;64.81
61351;DHT22;47119;49.130;9.218;2023-01-04T04:08:00;12.44;64.93
61351;DHT22;47119;49.130;9.218;2023-01-04T04:10:46;12.40;64.76
61351;DHT22;47119;49.130;9.218;2023-01-04T04:13:15;12.36;64.56
61351;DHT22;47119;49.130;9.218;2023-01-04T04:15:43;12.37;64.72
61351;DHT22;47119;49.130;9.218;2023-01-04T04:18:10;12.37;65.20
61351;DHT22;47119;49.130;9.218;2023-01-04T04:20:37;12.34;64.94
61351;DHT22;47119;49.130;9.218;2023-01-04T04:23:05;12.34;65.27
61351;DHT22;47119;49.130;9.218;2023-01-04T04:25:34;12.34;64.84
61351;DHT22;47119;49.130;9.218;2023-01-04T04:28:03;12.29;64.86
61351;DHT22;47119;49.130;9.218;2023-01-04T04:30:31;12.30;65.49
61351;DHT22;47119;49.130;9.218;2023-01-04T04:32:58;12.27;65.27
61351;DHT22;47119;49.130;9.218;2023-01-04T04:35:28;12.27;65.31
61351;DHT22;47119;49.130;9.218;2023-01-04T04:37:55;12.30;65.44
61351;DHT22;47119;49.130;9.218;2023-01-04T04:40:22;12.23;65.52
61351;DHT22;47119;49.130;9.218;2023-01-04T04:43:10;12.23;65.21
61351;DHT22;47119;49.130;9.218;2023-01-04T04:45:37;12.24;65.21
61351;DHT22;47119;49.130;9.218;2023-01-04T04:48:04;12.24;65.15
61351;DHT22;47119;49.130;9.218;2023-01-04T04:50:32;12.24;65.49
61351;DHT22;47119;49.130;9.218;2023-01-04T04:52:59;12.24;65.55
61351;DHT22;47119;49.130;9.218;2023-01-04T04:55:26;12.23;65.29
61351;DHT22;47119;49.130;9.218;2023-01-04T04:57:53;12.23;65.13
61351;DHT22;47119;49.130;9.218;2023-01-04T05:00:24;12.22;65.13
61351;DHT22;47119;49.130;9.218;2023-01-04T05:02:57;12.22;65.15
61351;DHT22;47119;49.130;9.218;2023-01-04T05:05:27;12.20;65.19
61351;DHT22;47119;49.130;9.218;2023-01-04T05:07:57;12.20;65.17
61351;DHT22;47119;49.130;9.218;2023-01-04T05:10:26;12.20;65.39
61351;DHT22;47119;49.130;9.218;2023-01-04T05:12:53;12.24;65.20
61351;DHT22;47119;49.130;9.218;2023-01-04T05:15:28;12.26;65.39
61351;DHT22;47119;49.130;9.218;2023-01-04T05:17:57;12.23;65.33
61351;DHT22;47119;49.130;9.218;2023-01-04T05:20:25;12.24;65.45
61351;DHT22;47119;49.130;9.218;2023-01-04T05:22:52;12.26;65.08
61351;DHT22;47119;49.130;9.218;2023-01-04T05:25:22;12.23;65.12
61351;DHT22;47119;49.130;9.218;2023-01-04T05:27:52;12.19;65.25
61351;DHT22;47119;49.130;9.218;2023-01-04T05:30:19;12.23;65.39
61351;DHT22;47119;49.130;9.218;2023-01-04T05:33:11;12.24;65.15
61351;DHT22;47119;49.130;9.218;2023-01-04T05:35:38;12.19;65.40
61351;DHT22;47119;49.130;9.218;2023-01-04T05:38:10;12.19;65.46
61351;DHT22;47119;49.130;9.218;2023-01-04T05:40:37;12.22;65.36
61351;DHT22;47119;49.130;9.218;2023-01-04T05:43:05;12.17;65.32
61351;DHT22;47119;49.130;9.218;2023-01-04T05:45:32;12.19;65.44
61351;DHT22;47119;49.130;9.218;2023-01-04T05:48:02;12.17;65.51
61351;DHT22;47119;49.130;9.218;2023-01-04T05:50:31;12.19;65.69
61351;DHT22;47119;49.130;9.218;2023-01-04T05:53:05;12.17;65.62
61351;DHT22;47119;49.130;9.218;2023-01-04T05:55:33;12.19;65.95
61351;DHT22;47119;49.130;9.218;2023-01-04T05:58:00;12.16;65.56
61351;DHT22;47119;49.130;9.218;2023-01-04T06:00:27;12.19;65.61
61351;DHT22;47119;49.130;9.218;2023-01-04T06:02:54;12.19;65.25
61351;DHT22;47119;49.130;9.218;2023-01-04T06:05:22;12.20;65.61
61351;DHT22;47119;49.130;9.218;2023-01-04T06:07:51;12.23;65.53
61351;DHT22;47119;49.130;9.218;2023-01-04T06:10:19;12.26;65.37
61351;DHT22;47119;49.130;9.218;2023-01-04T06:12:47;12.33;65.33
61351;DHT22;47119;49.130;9.218;2023-01-04T06:15:15;12.38;65.46
61351;DHT22;47119;49.130;9.218;2023-01-04T06:17:42;12.40;65.30
61351;DHT22;47119;49.130;9.218;2023-01-04T06:20:10;12.43;65.01
61351;DHT22;47119;49.130;9.218;2023-01-04T06:22:37;12.41;64.74
61351;DHT22;47119;49.130;9.218;2023-01-04T06:25:08;12.45;64.77
61351;DHT22;47119;49.130;9.218;2023-01-04T06:27:36;12.47;64.92
61351;DHT22;47119;49.130;9.218;2023-01-04T06:30:08;12.51;64.55
61351;DHT22;47119;49.130;9.218;2023-01-04T06:32:37;12.50;64.61
61351;DHT22;47119;49.130;9.218;2023-01-04T06:35:05;12.50;64.71
61351;DHT22;47119;49.130;9.218;2023-01-04T06:37:34;12.50;64.78
61351;DHT22;47119;49.130;9.218;2023-01-04T06:40:08;12.47;64.86
61351;DHT22;47119;49.130;9.218;2023-01-04T06:42:36;12.47;64.93
61351;DHT22;47119;49.130;9.218;2023-01-04T06:45:13;12.51;64.87
61351;DHT22;47119;49.130;9.218;2023-01-04T06:47:41;12.48;64.77
61351;DHT22;47119;49.130;9.218;2023-01-04T06:50:11;12.47;65.06
61351;DHT22;47119;49.130;9.218;2023-01-04T06:52:39;12.48;65.07
61351;DHT22;47119;49.130;9.218;2023-01-04T06:55:09;12.44;64.78
61351;DHT22;47119;49.130;9.218;2023-01-04T06:57:36;12.48;64.98
61351;DHT22;47119;49.130;9.218;2023-01-04T07:00:04;12.43;64.98
61351;DHT22;47119;49.130;9.218;2023-01-04T07:02:33;12.44;65.16
61351;DHT22;47119;49.130;9.218;2023-01-04T07:05:01;12.45;65.28
61351;DHT22;47119;49.130;9.218;2023-01-04T07:07:31;12.43;65.41
61351;DHT22;47119;49.130;9.218;2023-01-04T07:09:59;12.48;65.75
61351;DHT22;47119;49.130;9.218;2023-01-04T07:12:30;12.44;65.68
61351;DHT22;47119;49.130;9.218;2023-01-04T07:14:57;12.44;65.76
61351;DHT22;47119;49.130;9.218;2023-01-04T07:17:25;12.43;66.03
61351;DHT22;47119;49.130;9.218;2023-01-04T07:19:52;12.40;65.79
61351;DHT22;47119;49.130;9.218;2023-01-04T07:22:19;12.38;65.79
61351;DHT22;47119;49.130;9.218;2023-01-04T07:24:47;12.40;66.12
61351;DHT22;47119;49.130;9.218;2023-01-04T07:27:14;12.40;66.25
61351;DHT22;47119;49.130;9.218;2023-01-04T07:29:42;12.41;66.33
61351;DHT22;47119;49.130;9.218;2023-01-04T07:32:11;12.41;66.53
61351;DHT22;47119;49.130;9.218;2023-01-04T07:34:40;12.40;66.49
61351;DHT22;47119;49.130;9.218;2023-01-04T07:37:07;12.41;66.61
61351;DHT22;47119;49.130;9.218;2023-01-04T07:39:35;12.37;66.75
61351;DHT22;47119;49.130;9.218;2023-01-04T07:42:04;12.40;66.72
61351;DHT22;47119;49.130;9.218;2023-01-04T07:44:31;12.41;67.00
61351;DHT22;47119;49.130;9.218;2023-01-04T07:47:03;12.37;66.79
61351;DHT22;47119;49.130;9.218;2023-01-04T07:49:32;12.38;67.05
61351;DHT22;47119;49.130;9.218;2023-01-04T07:51:59;12.36;66.72
61351;DHT22;47119;49.130;9.218;2023-01-04T07:54:26;12.36;67.18
61351;DHT22;47119;49.130;9.218;2023-01-04T07:56:55;12.37;67.16
61351;DHT22;47119;49.130;9.218;2023-01-04T07:59:23;12.36;67.38
61351;DHT22;47119;49.130;9.218;2023-01-04T08:01:50;12.38;67.11
61351;DHT22;47119;49.130;9.218;2023-01-04T08:04:23;12.34;67.66
61351;DHT22;47119;49.130;9.218;2023-01-04T08:06:55;12.38;67.92
61351;DHT22;47119;49.130;9.218;2023-01-04T08:09:24;12.38;67.65
61351;DHT22;47119;49.130;9.218;2023-01-04T08:11:52;12.36;67.43
61351;DHT22;47119;49.130;9.218;2023-01-04T08:14:19;12.36;68.20
61351;DHT22;47119;49.130;9.218;2023-01-04T08:16:46;12.37;67.36
61351;DHT22;47119;49.130;9.218;2023-01-04T08:19:15;12.34;67.60
61351;DHT22;47119;49.130;9.218;2023-01-04T08:21:47;12.33;67.66
61351;DHT22;47119;49.130;9.218;2023-01-04T08:24:16;12.34;67.79
61351;DHT22;47119;49.130;9.218;2023-01-04T08:26:45;12.30;67.71
61351;DHT22;47119;49.130;9.218;2023-01-04T08:29:13;12.16;67.56
61351;DHT22;47119;49.130;9.218;2023-01-04T08:31:42;12.12;67.50
61351;DHT22;47119;49.130;9.218;2023-01-04T08:34:09;12.22;67.86
61351;DHT22;47119;49.130;9.218;2023-01-04T08:36:47;12.24;68.09
61351;DHT22;47119;49.130;9.218;2023-01-04T08:39:33;12.27;68.09
61351;DHT22;47119;49.130;9.218;2023-01-04T08:42:01;12.27;68.24
61351;DHT22;47119;49.130;9.218;2023-01-04T08:44:30;12.29;68.36
61351;DHT22;47119;49.130;9.218;2023-01-04T08:46:59;12.30;68.36
61351;DHT22;47119;49.130;9.218;2023-01-04T08:49:26;12.30;68.01
61351;DHT22;47119;49.130;9.218;2023-01-04T08:51:57;12.36;68.18
61351;DHT22;47119;49.130;9.218;2023-01-04T08:54:24;12.36;68.12
61351;DHT22;47119;49.130;9.218;2023-01-04T08:56:52;12.40;67.92
61351;DHT22;47119;49.130;9.218;2023-01-04T08:59:20;12.48;67.93
61351;DHT22;47119;49.130;9.218;2023-01-04T09:01:50;12.54;67.72
61351;DHT22;47119;49.130;9.218;2023-01-04T09:04:20;12.58;67.48
61351;DHT22;47119;49.130;9.218;2023-01-04T09:06:47;12.63;67.44
61351;DHT22;47119;49.130;9.218;2023-01-04T09:09:19;12.64;67.33
61351;DHT22;47119;49.130;9.218;2023-01-04T09:11:49;12.67;67.31
61351;DHT22;47119;49.130;9.218;2023-01-04T09:14:16;12.68;67.25
61351;DHT22;47119;49.130;9.218;2023-01-04T09:16:43;12.71;66.95
61351;DHT22;47119;49.130;9.218;2023-01-04T09:19:10;12.71;66.94
61351;DHT22;47119;49.130;9.218;2023-01-04T09:21:37;12.74;67.18
61351;DHT22;47119;49.130;9.218;2023-01-04T09:24:05;12.74;67.12
61351;DHT22;47119;49.130;9.218;2023-01-04T09:26:35;12.71;67.05
61351;DHT22;47119;49.130;9.218;2023-01-04T09:29:02;12.73;66.89
61351;DHT22;47119;49.130;9.218;2023-01-04T09:31:32;12.68;67.01
61351;DHT22;47119;49.130;9.218;2023-01-04T09:33:59;12.69;67.12
61351;DHT22;47119;49.130;9.218;2023-01-04T09:36:29;12.71;67.13
61351;DHT22;47119;49.130;9.218;2023-01-04T09:39:01;12.71;67.34
61351;DHT22;47119;49.130;9.218;2023-01-04T09:41:31;12.73;67.22
61351;DHT22;47119;49.130;9.218;2023-01-04T09:44:13;12.75;67.17
61351;DHT22;47119;49.130;9.218;2023-01-04T09:46:54;12.73;67.21
61351;DHT22;47119;49.130;9.218;2023-01-04T09:49:31;12.67;67.20
61351;DHT22;47119;49.130;9.218;2023-01-04T09:52:11;12.69;67.48
61351;DHT22;47119;49.130;9.218;2023-01-04T09:54:44;12.69;67.35
61351;DHT22;47119;49.130;9.218;2023-01-04T09:57:21;12.69;67.72
61351;DHT22;47119;49.130;9.218;2023-01-04T10:00:00;12.69;67.41
61351;DHT22;47119;49.130;9.218;2023-01-04T10:02:39;12.67;67.41
61351;DHT22;47119;49.130;9.218;2023-01-04T10:05:14;12.67;67.18
61351;DHT22;47119;49.130;9.218;2023-01-04T10:07:47;12.65;67.46
61351;DHT22;47119;49.130;9.218;2023-01-04T10:10:32;12.67;67.72
61351;DHT22;47119;49.130;9.218;2023-01-04T10:13:22;12.69;67.40
61351;DHT22;47119;49.130;9.218;2023-01-04T10:16:09;12.65;67.56
61351;DHT22;47119;49.130;9.218;2023-01-04T10:18:49;12.68;67.42
61351;DHT22;47119;49.130;9.218;2023-01-04T10:21:32;12.65;67.43
61351;DHT22;47119;49.130;9.218;2023-01-04T10:24:27;12.65;67.56
61351;DHT22;47119;49.130;9.218;2023-01-04T10:27:05;12.67;67.75
61351;DHT22;47119;49.130;9.218;2023-01-04T10:29:53;12.65;67.32
61351;DHT22;47119;49.130;9.218;2023-01-04T10:32:34;12.65;67.55
61351;DHT22;47119;49.130;9.218;2023-01-04T10:35:17;12.68;67.69
61351;DHT22;47119;49.130;9.218;2023-01-04T10:37:53;12.65;67.20
61351;DHT22;47119;49.130;9.218;2023-01-04T10:40:24;12.67;67.64
61351;DHT22;47119;49.130;9.218;2023-01-04T10:42:59;12.67;67.60
61351;DHT22;47119;49.130;9.218;2023-01-04T10:45:38;12.67;67.42
61351;DHT22;47119;49.130;9.218;2023-01-04T10:48:17;12.68;67.48
61351;DHT22;47119;49.130;9.218;2023-01-04T10:50:54;12.69;67.62
61351;DHT22;47119;49.130;9.218;2023-01-04T10:53:26;12.71;67.41
61351;DHT22;47119;49.130;9.218;2023-01-04T10:56:03;12.71;67.35
61351;DHT22;47119;49.130;9.218;2023-01-04T10:58:37;12.73;67.60
61351;DHT22;47119;49.130;9.218;2023-01-04T11:01:13;12.73;67.44
61351;DHT22;47119;49.130;9.218;2023-01-04T11:03:48;12.78;67.55
61351;DHT22;47119;49.130;9.218;2023-01-04T11:06:22;12.78;67.47
61351;DHT22;47119;49.130;9.218;2023-01-04T11:08:56;12.81;67.68
61351;DHT22;47119;49.130;9.218;2023-01-04T11:11:31;12.81;67.54
61351;DHT22;47119;49.130;9.218;2023-01-04T11:14:03;12.81;67.79
61351;DHT22;47119;49.130;9.218;2023-01-04T11:16:31;12.82;67.76
61351;DHT22;47119;49.130;9.218;2023-01-04T11:18:58;12.81;67.93
61351;DHT22;47119;49.130;9.218;2023-01-04T11:21:34;12.81;67.98
61351;DHT22;47119;49.130;9.218;2023-01-04T11:24:10;12.82;67.91
61351;DHT22;47119;49.130;9.218;2023-01-04T11:26:44;12.82;67.98
61351;DHT22;47119;49.130;9.218;2023-01-04T11:29:24;12.81;68.09
61351;DHT22;47119;49.130;9.218;2023-01-04T11:32:02;12.80;68.26
61351;DHT22;47119;49.130;9.218;2023-01-04T11:34:44;12.82;68.19
61351;DHT22;47119;49.130;9.218;2023-01-04T11:37:24;12.84;68.45
61351;DHT22;47119;49.130;9.218;2023-01-04T11:40:11;12.84;68.03
61351;DHT22;47119;49.130;9.218;2023-01-04T11:42:48;12.88;68.12
61351;DHT22;47119;49.130;9.218;2023-01-04T11:45:23;12.89;68.21
61351;DHT22;47119;49.130;9.218;2023-01-04T11:47:57;12.88;68.12
61351;DHT22;47119;49.130;9.218;2023-01-04T11:50:38;12.89;68.28
61351;DHT22;47119;49.130;9.218;2023-01-04T11:53:24;12.98;68.28
61351;DHT22;47119;49.130;9.218;2023-01-04T11:56:09;12.98;68.42
61351;DHT22;47119;49.130;9.218;2023-01-04T11:58:42;13.01;68.29
61351;DHT22;47119;49.130;9.218;2023-01-04T12:01:21;13.05;68.40
61351;DHT22;47119;49.130;9.218;2023-01-04T12:03:51;13.05;68.40
61351;DHT22;47119;49.130;9.218;2023-01-04T12:06:20;13.08;68.69
61351;DHT22;47119;49.130;9.218;2023-01-04T12:08:56;13.06;68.49
61351;DHT22;47119;49.130;9.218;2023-01-04T12:11:28;13.09;68.39
61351;DHT22;47119;49.130;9.218;2023-01-04T12:13:58;13.08;68.58
61351;DHT22;47119;49.130;9.218;2023-01-04T12:16:38;13.12;68.57
61351;DHT22;47119;49.130;9.218;2023-01-04T12:19:15;13.08;68.51
61351;DHT22;47119;49.130;9.218;2023-01-04T12:21:47;13.06;68.80
61351;DHT22;47119;49.130;9.218;2023-01-04T12:24:21;13.09;68.71
61351;DHT22;47119;49.130;9.218;2023-01-04T12:26:53;13.11;68.99
61351;DHT22;47119;49.130;9.218;2023-01-04T12:32:53;13.06;69.18
61351;DHT22;47119;49.130;9.218;2023-01-04T12:42:20;13.02;69.35
61351;DHT22;47119;49.130;9.218;2023-01-04T12:47:48;13.01;69.49
61351;DHT22;47119;49.130;9.218;2023-01-04T12:54:21;13.01;69.33
61351;DHT22;47119;49.130;9.218;2023-01-04T12:57:22;13.02;69.36
61351;DHT22;47119;49.130;9.218;2023-01-04T12:59:56;13.08;69.24
61351;DHT22;47119;49.130;9.218;2023-01-04T13:02:25;13.05;69.31
61351;DHT22;47119;49.130;9.218;2023-01-04T13:04:58;13.02;69.39
61351;DHT22;47119;49.130;9.218;2023-01-04T13:07:45;13.03;69.38
61351;DHT22;47119;49.130;9.218;2023-01-04T13:10:36;13.01;69.50
61351;DHT22;47119;49.130;9.218;2023-01-04T13:13:22;13.01;69.35
61351;DHT22;47119;49.130;9.218;2023-01-04T13:16:08;13.01;69.38
61351;DHT22;47119;49.130;9.218;2023-01-04T13:18:45;13.02;69.62
61351;DHT22;47119;49.130;9.218;2023-01-04T13:21:16;13.02;69.51
61351;DHT22;47119;49.130;9.218;2023-01-04T13:23:53;13.03;69.56
61351;DHT22;47119;49.130;9.218;2023-01-04T13:26:33;13.05;69.31
61351;DHT22;47119;49.130;9.218;2023-01-04T13:29:11;13.01;69.37
61351;DHT22;47119;49.130;9.218;2023-01-04T13:31:51;13.03;69.49
61351;DHT22;47119;49.130;9.218;2023-01-04T13:34:24;13.05;69.28
61351;DHT22;47119;49.130;9.218;2023-01-04T13:37:10;13.05;69.42
61351;DHT22;47119;49.130;9.218;2023-01-04T13:39:42;13.05;69.30
61351;DHT22;47119;49.130;9.218;2023-01-04T13:42:20;13.02;69.49
61351;DHT22;47119;49.130;9.218;2023-01-04T13:45:07;13.02;69.37
61351;DHT22;47119;49.130;9.218;2023-01-04T13:47:50;13.02;69.38
61351;DHT22;47119;49.130;9.218;2023-01-04T13:50:31;13.02;69.43
61351;DHT22;47119;49.130;9.218;2023-01-04T13:53:03;13.03;69.45
61351;DHT22;47119;49.130;9.218;2023-01-04T13:55:32;13.06;69.40
61351;DHT22;47119;49.130;9.218;2023-01-04T13:58:04;13.06;69.36
61351;DHT22;47119;49.130;9.218;2023-01-04T14:00:43;13.08;69.49
61351;DHT22;47119;49.130;9.218;2023-01-04T14:03:33;13.09;69.47
61351;DHT22;47119;49.130;9.218;2023-01-04T14:06:13;13.06;69.33
61351;DHT22;47119;49.130;9.218;2023-01-04T14:08:55;13.08;69.49
61351;DHT22;47119;49.130;9.218;2023-01-04T14:11:28;13.08;69.51
61351;DHT22;47119;49.130;9.218;2023-01-04T14:14:45;13.05;69.60
61351;DHT22;47119;49.130;9.218;2023-01-04T14:17:22;13.08;69.56
61351;DHT22;47119;49.130;9.218;2023-01-04T14:19:56;13.08;69.58
61351;DHT22;47119;49.130;9.218;2023-01-04T14:22:26;13.05;69.60
61351;DHT22;47119;49.130;9.218;2023-01-04T14:28:30;13.01;69.81
61351;DHT22;47119;49.130;9.218;2023-01-04T14:31:27;13.03;69.80
61351;DHT22;47119;49.130;9.218;2023-01-04T14:33:57;13.01;69.81
61351;DHT22;47119;49.130;9.218;2023-01-04T14:36:30;13.02;69.65
61351;DHT22;47119;49.130;9.218;2023-01-04T14:39:19;13.03;69.83
61351;DHT22;47119;49.130;9.218;2023-01-04T14:41:53;13.08;69.72
61351;DHT22;47119;49.130;9.218;2023-01-04T14:44:26;13.11;69.87
61351;DHT22;47119;49.130;9.218;2023-01-04T14:47:00;13.15;69.72
61351;DHT22;47119;49.130;9.218;2023-01-04T14:49:30;13.19;69.73
61351;DHT22;47119;49.130;9.218;2023-01-04T14:51:59;13.16;69.75
61351;DHT22;47119;49.130;9.218;2023-01-04T14:54:30;13.22;69.71
61351;DHT22;47119;49.130;9.218;2023-01-04T14:56:59;13.23;69.57
61351;DHT22;47119;49.130;9.218;2023-01-04T14:59:27;13.25;69.54
61351;DHT22;47119;49.130;9.218;2023-01-04T15:01:59;13.27;69.42
61351;DHT22;47119;49.130;9.218;2023-01-04T15:04:27;13.27;69.64
61351;DHT22;47119;49.130;9.218;2023-01-04T15:06:55;13.26;69.60
61351;DHT22;47119;49.130;9.218;2023-01-04T15:09:27;13.26;69.52
61351;DHT22;47119;49.130;9.218;2023-01-04T15:12:14;13.29;69.59
61351;DHT22;47119;49.130;9.218;2023-01-04T15:14:41;13.27;69.77
61351;DHT22;47119;49.130;9.218;2023-01-04T15:17:09;13.26;69.69
61351;DHT22;47119;49.130;9.218;2023-01-04T15:19:37;13.27;69.94
61351;DHT22;47119;49.130;9.218;2023-01-04T15:22:04;13.25;69.84
61351;DHT22;47119;49.130;9.218;2023-01-04T15:24:31;13.25;70.03
61351;DHT22;47119;49.130;9.218;2023-01-04T15:27:06;13.25;70.05
61351;DHT22;47119;49.130;9.218;2023-01-04T15:29:33;13.23;69.91
61351;DHT22;47119;49.130;9.218;2023-01-04T15:32:05;13.23;70.10
61351;DHT22;47119;49.130;9.218;2023-01-04T15:34:33;13.23;70.30
61351;DHT22;47119;49.130;9.218;2023-01-04T15:37:03;13.23;70.39
61351;DHT22;47119;49.130;9.218;2023-01-04T15:39:30;13.25;70.29
61351;DHT22;47119;49.130;9.218;2023-01-04T15:41:57;13.23;70.59
61351;DHT22;47119;49.130;9.218;2023-01-04T15:44:42;13.22;70.32
61351;DHT22;47119;49.130;9.218;2023-01-04T15:47:10;13.22;70.35
61351;DHT22;47119;49.130;9.218;2023-01-04T15:49:38;13.20;70.56
61351;DHT22;47119;49.130;9.218;2023-01-04T15:52:06;13.23;70.56
61351;DHT22;47119;49.130;9.218;2023-01-04T15:54:33;13.22;70.50
61351;DHT22;47119;49.130;9.218;2023-01-04T15:57:01;13.20;70.56
61351;DHT22;47119;49.130;9.218;2023-01-04T15:59:30;13.20;70.52
61351;DHT22;47119;49.130;9.218;2023-01-04T16:01:57;13.20;70.65
61351;DHT22;47119;49.130;9.218;2023-01-04T16:04:28;13.19;70.72
61351;DHT22;47119;49.130;9.218;2023-01-04T16:06:56;13.22;70.54
61351;DHT22;47119;49.130;9.218;2023-01-04T16:09:24;13.16;70.68
61351;DHT22;47119;49.130;9.218;2023-01-04T16:11:55;13.19;70.78
61351;DHT22;47119;49.130;9.218;2023-01-04T16:14:40;13.19;70.60
61351;DHT22;47119;49.130;9.218;2023-01-04T16:17:07;13.23;70.54
61351;DHT22;47119;49.130;9.218;2023-01-04T16:19:37;13.22;70.53
61351;DHT22;47119;49.130;9.218;2023-01-04T16:22:08;13.19;70.50
61351;DHT22;47119;49.130;9.218;2023-01-04T16:24:36;13.20;70.58
61351;DHT22;47119;49.130;9.218;2023-01-04T16:27:03;13.19;70.65
61351;DHT22;47119;49.130;9.218;2023-01-04T16:29:33;13.22;70.71
61351;DHT22;47119;49.130;9.218;2023-01-04T16:32:03;13.19;70.75
61351;DHT22;47119;49.130;9.218;2023-01-04T16:34:31;13.20;70.57
61351;DHT22;47119;49.130;9.218;2023-01-04T16:36:58;13.20;70.68